This is the latest recevied weather packets stored in our database for station/object OE-11365. If no packets are shown the sender has not sent any weather packets the latest 10 day(s).
| Time | Temp. | Humidity | Pressure | Rain* | Wind** | Luminosity | Snow |
|---|---|---|---|---|---|---|---|
| 1787870504 | 17.78° C | 90% | 1017.1 hPa | 0 mm | - | 0 W/m² | - |
| 1787870131 | 17.78° C | 88% | 1017.2 hPa | 0 mm | - | 0 W/m² | - |
| 1787869531 | 17.78° C | 87% | 1017.2 hPa | 0 mm | - | 0 W/m² | - |
| 1787868704 | 18.33° C | 85% | 1017.1 hPa | 0 mm | - | 0 W/m² | - |
| 1787868330 | 18.89° C | 82% | 1016.9 hPa | 0 mm | - | 0 W/m² | - |
| 1787867731 | 19.44° C | 81% | 1016.8 hPa | 0 mm | - | 0 W/m² | - |
| 1787866904 | 20° C | 80% | 1016.7 hPa | 0 mm | - | 0 W/m² | - |
| 1787866530 | 20° C | 79% | 1016.6 hPa | 0 mm | - | 0 W/m² | - |
| 1787865931 | 20° C | 79% | 1016.6 hPa | 0 mm | - | 0 W/m² | - |
| 1787865104 | 20° C | 80% | 1016.8 hPa | 0 mm | - | 0 W/m² | - |
| 1787864730 | 20° C | 80% | 1016.7 hPa | 0 mm | - | 0 W/m² | - |
| 1787864130 | 20° C | 80% | 1016.6 hPa | 0 mm | - | 0 W/m² | - |
| 1787863304 | 20° C | 79% | 1016.3 hPa | 0 mm | - | 0 W/m² | - |
| 1787862931 | 20.56° C | 78% | 1016.3 hPa | 0 mm | - | 0 W/m² | - |
| 1787862331 | 21.67° C | 72% | 1015.9 hPa | 0 mm | - | 0 W/m² | - |
| 1787861504 | 21.11° C | 75% | 1016.2 hPa | 0 mm | - | 0 W/m² | - |
| 1787861131 | 20.56° C | 77% | 1016.2 hPa | 0 mm | - | 0 W/m² | - |
| 1787860531 | 21.11° C | 77% | 1016 hPa | 0 mm | - | 0 W/m² | - |
| 1787859704 | 20.56° C | 77% | 1016.1 hPa | 0 mm | - | 0 W/m² | - |
| 1787859331 | 21.11° C | 75% | 1015.9 hPa | 0 mm | - | 0 W/m² | - |
| 1787858731 | 21.67° C | 73% | 1015.7 hPa | 0 mm | - | 0 W/m² | - |
| 1787857904 | 22.22° C | 71% | 1015.5 hPa | 0 mm | - | 0 W/m² | - |
| 1787857531 | 22.78° C | 68% | 1015.3 hPa | 0 mm | - | 0 W/m² | - |
| 1787856931 | 22.78° C | 68% | 1015.1 hPa | 0 mm | - | 0 W/m² | - |
| 1787856104 | 23.89° C | 64% | 1014.6 hPa | 0 mm | - | 0 W/m² | - |
* Rain latest hour (hover to see other rain measurements)
** Current wind speed in m/s (hover to see current wind gust speed)